Time;durP1;ratioP1;P1;durP2;ratioP2;P2;SDS_P1;SDS_P2;PMS_P1;PMS_P2;Temp;Humidity;BMP_temperature;BMP_pressure;BME280_temperature;BME280_humidity;BME280_pressure;Samples;Min_cycle;Max_cycle;Signal;HPM_P1;HPM_P2
2022/06/26 00:00:11;;;;;;;1.90;1.33;;;;;;;18.10;100.00;98619.13;5078232;28;20396;-68
2022/06/26 00:03:04;;;;;;;1.73;1.30;;;;;;;18.10;100.00;98621.75;5098132;28;20047;-66
2022/06/26 00:05:49;;;;;;;2.45;1.30;;;;;;;18.20;100.00;98624.34;5083252;28;20051;-65
2022/06/26 00:08:34;;;;;;;1.90;1.38;;;;;;;18.34;100.00;98623.72;5112059;28;20052;-65
2022/06/26 00:11:18;;;;;;;1.35;1.02;;;;;;;18.39;100.00;98623.28;5096979;28;20077;-65
2022/06/26 00:14:04;;;;;;;2.10;1.20;;;;;;;18.43;100.00;98621.13;5096386;28;20126;-64
2022/06/26 00:16:49;;;;;;;1.20;1.00;;;;;;;18.46;100.00;98631.41;5111304;28;20058;-64
2022/06/26 00:19:34;;;;;;;1.92;1.23;;;;;;;18.50;100.00;98630.09;5070205;28;20106;-66
2022/06/26 00:22:20;;;;;;;2.22;1.45;;;;;;;18.54;100.00;98625.31;5092068;28;20493;-64
2022/06/26 00:25:05;;;;;;;1.70;1.27;;;;;;;18.52;100.00;98629.94;5096022;28;20036;-64
2022/06/26 00:27:50;;;;;;;1.40;1.17;;;;;;;18.53;100.00;98629.78;5095912;28;20489;-65
2022/06/26 00:30:35;;;;;;;1.63;1.17;;;;;;;18.55;100.00;98635.78;5110675;28;20040;-64
2022/06/26 00:33:20;;;;;;;2.28;1.75;;;;;;;18.62;100.00;98632.47;5076076;28;20070;-65
2022/06/26 00:36:04;;;;;;;2.90;1.42;;;;;;;18.63;100.00;98628.81;5114534;28;20051;-65
2022/06/26 00:38:49;;;;;;;2.15;1.10;;;;;;;18.64;100.00;98635.81;5116187;28;20048;-64
2022/06/26 00:41:35;;;;;;;2.20;1.45;;;;;;;18.55;100.00;98640.22;5103860;28;20067;-65
2022/06/26 00:44:24;;;;;;;3.55;1.48;;;;;;;18.55;100.00;98627.81;5114850;28;20036;-63
2022/06/26 00:47:08;;;;;;;2.00;1.33;;;;;;;18.59;100.00;98636.25;5086257;28;20100;-66
2022/06/26 00:49:54;;;;;;;3.92;1.20;;;;;;;18.55;100.00;98637.59;5099814;28;20062;-65
2022/06/26 00:52:40;;;;;;;2.53;1.33;;;;;;;18.53;100.00;98637.75;5089654;28;20047;-65
2022/06/26 00:55:25;;;;;;;1.90;1.35;;;;;;;18.28;100.00;98634.16;5084565;28;20039;-65
2022/06/26 00:58:10;;;;;;;2.10;1.60;;;;;;;18.22;100.00;98632.97;5099711;28;20039;-64
2022/06/26 01:00:55;;;;;;;2.22;1.42;;;;;;;18.21;100.00;98633.97;5115558;28;20058;-64
2022/06/26 01:03:40;;;;;;;4.63;1.85;;;;;;;18.15;100.00;98634.59;5114763;28;20043;-64
2022/06/26 01:06:25;;;;;;;3.92;1.60;;;;;;;18.13;100.00;98632.09;5115631;28;20063;-65
2022/06/26 01:09:11;;;;;;;2.45;1.50;;;;;;;18.09;100.00;98633.38;5100077;28;20400;-64
2022/06/26 01:11:56;;;;;;;2.50;1.63;;;;;;;18.00;100.00;98627.19;5114488;28;20108;-66
2022/06/26 01:14:41;;;;;;;2.22;1.45;;;;;;;18.00;100.00;98627.19;5115731;28;20039;-65
2022/06/26 01:17:27;;;;;;;2.17;1.58;;;;;;;18.01;100.00;98633.31;5085142;28;20058;-65
2022/06/26 01:20:13;;;;;;;2.35;1.70;;;;;;;18.12;100.00;98641.03;5071119;27;20548;-64
2022/06/26 01:23:04;;;;;;;2.63;1.77;;;;;;;18.22;100.00;98640.91;5099753;28;20055;-65
2022/06/26 01:25:50;;;;;;;2.63;2.00;;;;;;;18.30;100.00;98642.78;5096222;28;20501;-64
2022/06/26 01:28:35;;;;;;;2.30;1.73;;;;;;;18.33;100.00;98642.44;5087266;28;20471;-64
2022/06/26 01:31:20;;;;;;;2.15;1.70;;;;;;;18.30;100.00;98646.25;5097151;28;20043;-64
2022/06/26 01:34:07;;;;;;;3.75;1.45;;;;;;;18.00;100.00;98645.75;5085693;28;20047;-63
2022/06/26 01:36:51;;;;;;;3.08;1.10;;;;;;;17.49;100.00;98644.53;5084933;28;20496;-63
2022/06/26 01:39:36;;;;;;;2.70;1.80;;;;;;;17.59;100.00;98638.34;5085172;28;20044;-64
2022/06/26 01:42:22;;;;;;;1.60;1.50;;;;;;;17.54;100.00;98649.41;5097378;28;20035;-64
2022/06/26 01:45:07;;;;;;;3.05;1.60;;;;;;;17.57;100.00;98649.09;5097951;28;20027;-64
2022/06/26 01:47:54;;;;;;;2.10;1.80;;;;;;;17.69;100.00;98640.91;5098964;28;20359;-64
2022/06/26 01:50:41;;;;;;;2.08;1.40;;;;;;;17.73;100.00;98639.59;5078737;28;20032;-64
2022/06/26 01:53:28;;;;;;;2.58;1.80;;;;;;;17.74;100.00;98633.31;5064770;28;20063;-64
2022/06/26 01:56:13;;;;;;;2.65;1.75;;;;;;;17.75;100.00;98635.00;5093494;28;20043;-64
2022/06/26 01:59:06;;;;;;;2.00;1.60;;;;;;;17.81;100.00;98637.00;5069537;28;20048;-65
2022/06/26 02:01:55;;;;;;;2.40;1.90;;;;;;;17.84;100.00;98644.66;5093879;28;20036;-64
2022/06/26 02:04:43;;;;;;;3.58;1.65;;;;;;;17.66;100.00;98643.88;5070409;28;20040;-65
2022/06/26 02:07:28;;;;;;;4.00;2.10;;;;;;;17.49;100.00;98652.50;5077903;28;20067;-64
2022/06/26 02:16:26;;;;;;;2.10;1.70;;;;;;;17.77;100.00;98654.22;5092953;28;20375;-64
2022/06/26 02:19:12;;;;;;;2.03;1.42;;;;;;;17.77;100.00;98640.97;5087552;28;20039;-65
2022/06/26 02:21:56;;;;;;;1.92;1.50;;;;;;;17.83;100.00;98648.28;5092079;28;20491;-64
2022/06/26 02:24:44;;;;;;;1.88;1.55;;;;;;;17.94;100.00;98655.16;5092724;28;20034;-64
2022/06/26 02:27:29;;;;;;;1.92;1.58;;;;;;;17.94;100.00;98652.50;5092666;28;20086;-65
2022/06/26 02:30:15;;;;;;;2.88;1.83;;;;;;;17.92;100.00;98658.94;5073086;28;20033;-65
2022/06/26 02:33:03;;;;;;;2.08;1.55;;;;;;;17.89;100.00;98653.97;5071830;28;20066;-63
2022/06/26 02:35:49;;;;;;;2.50;1.90;;;;;;;17.88;100.00;98654.94;5093281;28;20036;-64
2022/06/26 02:38:35;;;;;;;5.78;2.10;;;;;;;17.89;100.00;98659.25;5092372;28;20429;-64
2022/06/26 02:41:21;;;;;;;2.58;1.70;;;;;;;17.77;100.00;98664.81;5071817;28;20044;-64
2022/06/26 02:44:06;;;;;;;2.88;1.63;;;;;;;17.63;100.00;98660.88;5065089;28;20118;-63
2022/06/26 02:46:52;;;;;;;1.88;1.55;;;;;;;17.72;100.00;98661.78;5091750;28;20048;-64
2022/06/26 02:49:36;;;;;;;2.47;1.70;;;;;;;17.70;100.00;98661.94;5080779;28;20395;-64
2022/06/26 02:52:22;;;;;;;2.35;1.50;;;;;;;17.75;100.00;98660.63;5042492;28;20098;-64
2022/06/26 02:55:08;;;;;;;1.67;1.48;;;;;;;17.81;100.00;98660.00;5077558;28;20101;-64
2022/06/26 02:57:58;;;;;;;4.53;1.85;;;;;;;17.82;100.00;98657.22;5085939;28;20056;-66
2022/06/26 03:00:43;;;;;;;2.03;1.50;;;;;;;17.91;100.00;98662.56;5065587;28;20388;-65
2022/06/26 03:03:28;;;;;;;2.10;1.52;;;;;;;17.96;100.00;98660.28;5056961;28;20036;-65
2022/06/26 03:06:13;;;;;;;2.20;1.58;;;;;;;17.89;100.00;98653.97;5063223;28;20051;-65
2022/06/26 03:08:58;;;;;;;2.47;1.90;;;;;;;17.95;100.00;98664.75;5091678;28;20043;-65
2022/06/26 03:11:45;;;;;;;1.90;1.40;;;;;;;17.99;100.00;98662.63;5078386;28;20365;-64
2022/06/26 03:14:31;;;;;;;2.60;1.58;;;;;;;18.02;100.00;98664.16;5092006;28;20048;-65
2022/06/26 03:17:16;;;;;;;1.92;1.73;;;;;;;18.02;100.00;98661.50;5105127;28;20075;-65
2022/06/26 03:20:15;;;;;;;2.55;1.90;;;;;;;18.05;100.00;98669.13;5104624;28;20048;-65
2022/06/26 03:23:00;;;;;;;1.92;1.50;;;;;;;17.98;100.00;98669.72;5081603;28;20502;-63
2022/06/26 03:25:45;;;;;;;2.30;1.60;;;;;;;17.93;100.00;98668.56;5113849;28;20047;-63
2022/06/26 03:28:32;;;;;;;2.83;1.50;;;;;;;17.95;100.00;98672.69;5105075;28;20063;-64
2022/06/26 03:31:17;;;;;;;1.75;1.42;;;;;;;18.04;100.00;98681.53;5121300;28;20044;-64
2022/06/26 03:34:03;;;;;;;1.83;1.42;;;;;;;18.08;100.00;98663.53;5092735;28;20035;-64
2022/06/26 03:36:50;;;;;;;1.33;1.23;;;;;;;18.08;100.00;98672.28;5079955;28;20039;-64
2022/06/26 03:39:35;;;;;;;1.92;1.50;;;;;;;18.12;100.00;98666.66;5084243;28;20051;-64
2022/06/26 03:42:21;;;;;;;2.65;1.33;;;;;;;18.19;100.00;98675.69;5083541;28;20054;-65
2022/06/26 03:45:07;;;;;;;1.67;1.30;;;;;;;18.23;100.00;98671.72;5094807;28;20502;-65
2022/06/26 03:47:55;;;;;;;1.63;1.40;;;;;;;18.31;100.00;98677.06;5073581;28;20044;-65
2022/06/26 03:50:40;;;;;;;2.63;1.55;;;;;;;18.36;100.00;98676.59;5067222;28;20027;-65
2022/06/26 03:53:25;;;;;;;2.08;1.70;;;;;;;18.42;100.00;98678.66;5073174;28;20048;-65
2022/06/26 03:56:10;;;;;;;3.38;1.90;;;;;;;18.48;100.00;98674.50;5094295;28;20085;-65
2022/06/26 03:58:56;;;;;;;1.50;1.30;;;;;;;18.55;100.00;98680.03;5096678;28;20070;-65
2022/06/26 04:01:42;;;;;;;2.58;1.50;;;;;;;18.65;100.00;98677.25;5096840;28;20040;-64
2022/06/26 04:04:28;;;;;;;1.85;1.33;;;;;;;18.76;100.00;98686.72;5078507;28;20048;-64
2022/06/26 04:07:14;;;;;;;3.10;1.33;;;;;;;18.81;100.00;98677.31;5111588;28;20044;-65
2022/06/26 04:10:03;;;;;;;1.98;1.30;;;;;;;18.90;100.00;98686.09;5099274;28;20130;-65
2022/06/26 04:12:47;;;;;;;2.22;1.70;;;;;;;19.00;100.00;98675.34;5100774;28;20157;-64
2022/06/26 04:15:36;;;;;;;2.83;1.48;;;;;;;19.08;100.00;98679.84;5077826;28;20055;-64
2022/06/26 04:18:22;;;;;;;2.97;1.92;;;;;;;19.07;100.00;98684.34;5100752;28;20046;-64
2022/06/26 04:21:07;;;;;;;3.25;1.90;;;;;;;19.18;100.00;98687.69;5086198;28;20052;-64
2022/06/26 04:23:55;;;;;;;2.92;1.70;;;;;;;19.20;100.00;98683.06;5088302;28;20063;-65
2022/06/26 04:26:42;;;;;;;2.47;1.73;;;;;;;19.36;99.92;98679.59;5100205;28;20046;-66
2022/06/26 04:29:27;;;;;;;2.03;1.60;;;;;;;19.52;99.20;98685.94;5089184;28;20044;-65
2022/06/26 04:32:11;;;;;;;2.22;1.70;;;;;;;19.31;100.00;98690.72;5087291;28;20063;-65
2022/06/26 04:34:59;;;;;;;2.10;1.60;;;;;;;19.11;100.00;98684.03;5083368;28;20054;-64
2022/06/26 04:37:46;;;;;;;3.08;1.70;;;;;;;19.07;100.00;98694.13;5100062;28;20073;-64
2022/06/26 04:40:31;;;;;;;2.30;1.73;;;;;;;19.26;100.00;98693.03;5102099;28;20438;-64
2022/06/26 04:43:17;;;;;;;4.55;1.80;;;;;;;19.29;100.00;98698.00;5103223;28;20040;-64
2022/06/26 04:46:03;;;;;;;3.45;1.85;;;;;;;19.27;100.00;98699.16;5100652;28;20740;-63
2022/06/26 04:48:48;;;;;;;2.22;1.92;;;;;;;19.38;100.00;98701.50;5084311;28;20054;-65
2022/06/26 04:51:36;;;;;;;6.20;1.70;;;;;;;19.42;100.00;98702.03;5099526;28;20466;-64
2022/06/26 04:54:23;;;;;;;2.80;1.77;;;;;;;19.19;100.00;98706.13;5099528;28;20063;-65
2022/06/26 04:57:09;;;;;;;3.70;2.20;;;;;;;19.16;100.00;98711.75;5100283;28;20459;-64
2022/06/26 04:59:54;;;;;;;3.15;1.90;;;;;;;19.22;100.00;98702.31;5100199;28;20043;-64
2022/06/26 05:02:39;;;;;;;2.80;1.90;;;;;;;19.22;100.00;98709.44;5099360;28;20085;-64
2022/06/26 05:05:36;;;;;;;4.63;2.05;;;;;;;19.14;100.00;98705.78;5089777;28;20040;-64
2022/06/26 05:08:36;;;;;;;2.10;1.45;;;;;;;19.38;100.00;98701.50;5087981;28;20544;-64
2022/06/26 05:11:23;;;;;;;3.47;1.85;;;;;;;19.66;100.00;98709.19;5099341;28;20062;-64
2022/06/26 05:14:11;;;;;;;4.22;1.73;;;;;;;19.86;99.57;98706.19;5079917;28;20040;-64
2022/06/26 05:17:06;;;;;;;3.33;1.98;;;;;;;19.49;100.00;98712.81;5088225;28;20077;-65
2022/06/26 05:19:54;;;;;;;3.33;2.05;;;;;;;19.31;100.00;98719.09;5098302;28;20044;-64
2022/06/26 05:22:42;;;;;;;2.28;1.88;;;;;;;19.31;100.00;98724.41;5099538;28;20067;-63
2022/06/26 05:25:28;;;;;;;2.65;1.70;;;;;;;19.33;100.00;98725.06;5102418;28;20737;-64
2022/06/26 05:28:14;;;;;;;2.55;2.10;;;;;;;19.33;100.00;98725.06;5099535;28;20040;-64
2022/06/26 05:30:59;;;;;;;5.78;2.20;;;;;;;19.35;100.00;98725.75;5075814;28;20032;-65
2022/06/26 05:33:45;;;;;;;4.18;2.15;;;;;;;19.43;100.00;98728.41;5109601;28;20043;-65
2022/06/26 05:36:30;;;;;;;3.00;1.90;;;;;;;19.53;100.00;98730.09;5109008;28;20114;-65
2022/06/26 05:39:17;;;;;;;2.03;1.52;;;;;;;19.75;99.31;98731.25;5099207;28;20036;-65
2022/06/26 05:42:04;;;;;;;2.88;1.60;;;;;;;19.93;98.91;98732.91;5081639;28;20051;-65
2022/06/26 05:44:50;;;;;;;3.38;2.25;;;;;;;20.15;97.52;98731.44;5099753;28;20044;-64
2022/06/26 05:47:37;;;;;;;4.45;2.63;;;;;;;20.31;95.89;98738.56;5084788;28;20039;-66
2022/06/26 05:50:41;;;;;;;2.72;1.73;;;;;;;20.27;95.66;98745.19;5101396;28;20035;-65
2022/06/26 05:53:49;;;;;;;4.30;2.20;;;;;;;20.06;97.13;98753.69;5079393;28;20552;-66
2022/06/26 05:56:49;;;;;;;3.23;2.17;;;;;;;19.91;98.25;98756.19;5099427;28;20032;-65
2022/06/26 05:59:41;;;;;;;4.45;1.88;;;;;;;20.02;97.83;98763.81;5084061;28;20051;-65
2022/06/26 06:03:03;;;;;;;3.15;2.10;;;;;;;20.34;96.20;98756.00;5113741;28;20042;-63
2022/06/26 06:05:50;;;;;;;2.22;1.85;;;;;;;20.73;94.84;98758.91;5098627;28;20791;-65
2022/06/26 06:08:34;;;;;;;3.13;1.90;;;;;;;21.07;93.28;98760.44;5114416;28;20036;-63
2022/06/26 06:11:19;;;;;;;3.08;1.90;;;;;;;21.02;92.47;98757.50;5095393;28;21296;-65
2022/06/26 06:14:04;;;;;;;3.42;1.83;;;;;;;21.01;93.18;98759.31;5098389;28;20040;-64
2022/06/26 06:16:49;;;;;;;2.72;2.10;;;;;;;20.96;91.89;98771.47;5054405;28;20059;-65
2022/06/26 06:19:33;;;;;;;7.90;2.35;;;;;;;21.15;91.52;98771.03;5098699;28;20043;-64
2022/06/26 06:22:18;;;;;;;3.50;2.33;;;;;;;21.18;92.46;98769.88;5098953;28;20111;-64
2022/06/26 06:25:04;;;;;;;9.68;2.90;;;;;;;21.04;92.98;98771.44;5081355;28;20470;-65
2022/06/26 06:27:50;;;;;;;2.40;2.00;;;;;;;21.19;93.71;98768.03;5077608;28;20093;-64
2022/06/26 06:30:38;;;;;;;3.75;2.20;;;;;;;21.62;91.30;98771.13;5089086;28;20422;-64
2022/06/26 06:33:23;;;;;;;4.03;2.33;;;;;;;21.74;92.46;98779.53;5095029;28;20047;-65
2022/06/26 06:36:09;;;;;;;5.85;2.28;;;;;;;21.77;92.05;98778.34;5097540;28;20261;-64
2022/06/26 06:38:55;;;;;;;3.60;2.20;;;;;;;21.51;93.63;98783.00;5063506;28;20115;-64
2022/06/26 06:41:41;;;;;;;2.63;2.28;;;;;;;21.57;93.61;98784.16;5078820;28;20047;-64
2022/06/26 06:44:29;;;;;;;3.63;2.53;;;;;;;21.73;92.18;98783.22;5098779;28;20035;-64
2022/06/26 06:47:46;;;;;;;4.75;2.58;;;;;;;21.89;91.32;98782.28;5075951;28;20435;-63
2022/06/26 06:50:53;;;;;;;3.28;2.10;;;;;;;22.64;86.07;98784.28;5080213;28;20055;-64
2022/06/26 06:53:38;;;;;;;6.55;2.35;;;;;;;23.09;84.74;98770.09;5090259;28;20106;-64
2022/06/26 06:56:23;;;;;;;3.95;2.13;;;;;;;23.73;81.62;98780.25;5086802;28;20037;-64
2022/06/26 06:59:08;;;;;;;4.85;2.20;;;;;;;23.67;80.68;98786.34;5112471;28;20450;-65
2022/06/26 07:01:54;;;;;;;2.92;1.92;;;;;;;24.19;79.57;98786.19;5110622;28;20045;-65
2022/06/26 07:04:39;;;;;;;4.45;2.42;;;;;;;23.81;80.34;98780.09;5113262;28;20106;-64
2022/06/26 07:07:24;;;;;;;3.17;2.17;;;;;;;24.54;77.26;98780.91;5098386;28;20039;-65
2022/06/26 07:10:09;;;;;;;5.18;2.38;;;;;;;24.42;76.21;98779.78;5083134;28;20036;-64
2022/06/26 07:12:57;;;;;;;4.15;2.20;;;;;;;24.37;76.59;98777.69;5112839;28;20035;-63
2022/06/26 07:15:44;;;;;;;4.00;2.65;;;;;;;24.43;75.88;98784.94;5097612;28;20039;-64
2022/06/26 07:18:28;;;;;;;6.03;2.13;;;;;;;25.12;71.95;98786.16;5082935;28;20048;-64
2022/06/26 07:21:13;;;;;;;1.75;1.45;;;;;;;25.01;73.27;98790.22;5075271;28;20048;-64
2022/06/26 07:24:01;;;;;;;3.95;2.50;;;;;;;25.06;72.28;98802.00;5097737;28;20122;-64
2022/06/26 07:27:03;;;;;;;3.22;2.22;;;;;;;24.94;73.19;98799.06;5096496;28;20035;-63
2022/06/26 07:29:55;;;;;;;3.35;2.00;;;;;;;25.46;71.43;98795.16;5067696;28;20047;-65
2022/06/26 07:32:41;;;;;;;3.40;2.20;;;;;;;25.36;71.53;98792.84;5098032;28;20035;-66
2022/06/26 07:35:26;;;;;;;3.53;2.35;;;;;;;25.83;67.53;98792.13;5086745;28;20040;-65
2022/06/26 07:38:11;;;;;;;2.88;2.10;;;;;;;25.45;69.54;98793.47;5096949;28;20344;-65
2022/06/26 07:40:56;;;;;;;2.67;2.15;;;;;;;25.85;69.88;98792.75;5097658;28;20053;-66
2022/06/26 07:43:40;;;;;;;3.58;2.33;;;;;;;26.26;65.71;98798.13;5114509;28;20130;-65
2022/06/26 07:46:25;;;;;;;2.42;1.88;;;;;;;26.07;67.04;98798.75;5099312;28;20043;-66
2022/06/26 07:49:12;;;;;;;2.72;2.20;;;;;;;26.31;65.75;98792.94;5084392;28;20055;-65
2022/06/26 07:51:57;;;;;;;5.22;2.35;;;;;;;26.34;66.03;98794.44;5082425;28;20042;-65
2022/06/26 07:54:42;;;;;;;4.60;2.20;;;;;;;26.10;66.19;98796.69;5096916;28;20036;-66
2022/06/26 07:57:27;;;;;;;3.75;2.28;;;;;;;26.24;66.62;98794.81;5095693;28;20119;-66
2022/06/26 08:00:12;;;;;;;3.42;2.40;;;;;;;25.84;65.81;98793.78;5111990;28;20555;-65
2022/06/26 08:03:09;;;;;;;2.53;1.90;;;;;;;26.86;64.36;98793.69;5096404;28;20418;-64
2022/06/26 08:05:55;;;;;;;2.80;2.10;;;;;;;26.66;63.05;98799.94;5081359;28;20621;-64
2022/06/26 08:08:40;;;;;;;2.95;1.75;;;;;;;26.67;63.15;98796.22;5100751;28;20066;-64
2022/06/26 08:11:25;;;;;;;2.67;1.92;;;;;;;27.06;61.71;98796.38;5095600;28;20027;-63
2022/06/26 08:14:10;;;;;;;2.92;2.00;;;;;;;26.65;62.23;98799.13;5111561;28;20059;-65
2022/06/26 08:16:55;;;;;;;2.63;2.03;;;;;;;27.30;59.75;98791.28;5095870;28;20043;-64
2022/06/26 08:19:39;;;;;;;3.40;1.98;;;;;;;27.01;60.06;98796.16;5096061;28;20115;-65
2022/06/26 08:22:26;;;;;;;2.50;1.80;;;;;;;27.24;59.62;98798.31;5101493;28;20057;-65
2022/06/26 08:25:18;;;;;;;4.80;1.65;;;;;;;27.64;58.63;98791.91;5095774;28;20058;-66
2022/06/26 08:28:05;;;;;;;1.95;1.70;;;;;;;27.77;56.53;98798.28;5095788;28;20078;-65
2022/06/26 08:30:49;;;;;;;2.22;1.70;;;;;;;27.54;56.67;98802.31;5070328;28;20032;-66
2022/06/26 08:33:34;;;;;;;3.15;1.65;;;;;;;27.82;55.63;98790.38;5094438;28;20055;-66
2022/06/26 08:36:19;;;;;;;1.50;1.30;;;;;;;28.39;55.35;98794.06;5112003;28;20039;-65
2022/06/26 08:39:07;;;;;;;3.85;2.20;;;;;;;28.59;54.33;98796.56;5099725;28;20047;-65
2022/06/26 08:41:53;;;;;;;3.78;1.70;;;;;;;28.69;53.19;98798.75;5111341;28;20475;-66
2022/06/26 08:44:44;;;;;;;2.05;1.50;;;;;;;28.51;53.61;98794.97;5075722;28;20181;-66
2022/06/26 08:47:31;;;;;;;;;;;;;;;28.02;53.91;98800.97;5099167;28;20041;-65
2022/06/26 08:50:20;;;;;;;2.78;1.50;;;;;;;27.89;56.35;98799.22;5111390;28;19961;-66
2022/06/26 08:53:06;;;;;;;3.53;1.75;;;;;;;28.33;52.68;98809.25;5071883;28;20051;-65
2022/06/26 08:55:51;;;;;;;1.90;1.52;;;;;;;27.88;54.88;98805.63;5108289;28;20071;-66
2022/06/26 08:58:36;;;;;;;4.15;1.50;;;;;;;28.06;57.74;98798.66;5115798;28;20077;-66
2022/06/26 09:01:20;;;;;;;3.10;1.65;;;;;;;28.23;54.21;98801.66;5094047;28;20062;-66
2022/06/26 09:04:07;;;;;;;2.40;1.90;;;;;;;27.02;57.01;98811.25;5108436;28;20477;-66
2022/06/26 09:06:52;;;;;;;3.08;1.67;;;;;;;28.27;55.81;98800.16;5082682;28;20039;-64
2022/06/26 09:09:42;;;;;;;2.58;1.40;;;;;;;29.14;53.34;98797.63;5114896;28;20085;-64
2022/06/26 09:12:35;;;;;;;2.47;1.55;;;;;;;29.00;51.26;98813.13;5114919;28;20108;-66
2022/06/26 09:15:22;;;;;;;2.85;2.00;;;;;;;28.77;52.05;98814.59;5102333;28;20035;-64
2022/06/26 09:18:10;;;;;;;2.92;2.00;;;;;;;29.28;51.17;98810.91;5099385;28;20097;-65
2022/06/26 09:20:55;;;;;;;2.95;1.85;;;;;;;29.21;49.87;98812.91;5114556;28;20091;-65
2022/06/26 09:23:52;;;;;;;2.42;1.60;;;;;;;28.69;51.87;98812.22;5100870;28;20180;-65
2022/06/26 09:26:40;;;;;;;2.67;1.52;;;;;;;27.51;57.11;98811.66;5099224;28;20086;-66
2022/06/26 09:29:25;;;;;;;2.20;1.50;;;;;;;26.94;56.60;98817.66;5103986;28;20040;-65
2022/06/26 09:32:14;;;;;;;4.68;1.60;;;;;;;29.04;50.72;98810.81;5102197;28;20064;-65
2022/06/26 09:34:58;;;;;;;2.03;1.40;;;;;;;30.13;46.70;98808.25;5122190;28;20039;-65
2022/06/26 09:37:43;;;;;;;1.67;1.48;;;;;;;30.36;44.25;98809.34;5087266;28;20044;-66
2022/06/26 09:40:28;;;;;;;2.05;1.40;;;;;;;31.02;43.84;98807.53;5114761;28;20605;-65
2022/06/26 09:43:16;;;;;;;2.15;1.25;;;;;;;31.39;44.40;98800.13;5114139;28;20047;-65
2022/06/26 09:46:06;;;;;;;1.48;1.10;;;;;;;30.57;45.92;98807.09;5102971;28;20046;-65
2022/06/26 09:48:50;;;;;;;2.03;1.30;;;;;;;31.28;43.16;98799.09;5114301;28;20100;-65
2022/06/26 09:51:42;;;;;;;1.92;1.52;;;;;;;31.32;42.27;98798.34;5099020;28;20458;-65
2022/06/26 09:54:26;;;;;;;1.55;1.10;;;;;;;31.89;41.82;98797.75;5113497;28;20378;-64
2022/06/26 09:57:11;;;;;;;1.17;1.00;;;;;;;31.58;44.80;98792.63;5098805;28;20058;-65
2022/06/26 09:59:56;;;;;;;1.60;1.15;;;;;;;31.87;41.98;98794.47;5090041;28;20498;-66
2022/06/26 10:09:02;;;;;;;2.13;1.40;;;;;;;33.05;38.64;98794.50;5093529;28;20047;-65
2022/06/26 10:11:47;;;;;;;1.67;1.35;;;;;;;32.68;41.15;98787.00;5104340;28;20047;-69
2022/06/26 10:14:38;;;;;;;2.30;1.20;;;;;;;33.42;40.32;98790.34;5097611;28;20031;-66
2022/06/26 10:17:31;;;;;;;2.38;1.30;;;;;;;33.83;38.74;98797.22;5092999;28;20054;-66
2022/06/26 10:20:19;;;;;;;3.55;1.70;;;;;;;33.13;39.19;98793.25;5104889;28;20043;-66
2022/06/26 10:23:04;;;;;;;1.88;1.15;;;;;;;33.63;41.13;98789.72;5112815;28;20082;-64
2022/06/26 10:25:50;;;;;;;2.53;1.45;;;;;;;33.34;38.27;98789.97;5103097;28;20031;-65
2022/06/26 10:28:36;;;;;;;2.30;1.17;;;;;;;33.22;40.21;98796.34;5095278;28;20044;-66
2022/06/26 10:31:20;;;;;;;1.98;1.40;;;;;;;32.76;40.21;98785.75;5101533;28;20040;-65
2022/06/26 10:34:09;;;;;;;1.38;1.17;;;;;;;32.32;40.40;98785.44;5107580;28;20348;-65
2022/06/26 10:36:57;;;;;;;;;;;;;;;33.36;38.04;98787.81;5104267;28;20043;-66
2022/06/26 10:39:46;;;;;;;2.05;1.67;;;;;;;33.03;38.00;98785.00;5098647;28;20038;-66
2022/06/26 10:45:39;;;;;;;2.10;1.40;;;;;;;34.06;36.76;98781.66;5112424;28;20040;-66
2022/06/26 10:48:24;;;;;;;1.98;1.48;;;;;;;34.13;37.19;98781.41;5097020;28;20036;-67
2022/06/26 10:51:10;;;;;;;1.50;1.35;;;;;;;33.71;36.97;98783.81;5078822;28;20031;-65
2022/06/26 10:53:57;;;;;;;3.10;1.50;;;;;;;33.75;37.41;98773.28;5077880;28;20481;-67
2022/06/26 10:56:44;;;;;;;1.75;1.30;;;;;;;34.50;39.01;98777.03;5100626;28;20116;-67
2022/06/26 10:59:29;;;;;;;2.00;1.20;;;;;;;34.59;39.26;98770.00;5112338;28;20036;-66
2022/06/26 11:02:15;;;;;;;1.60;1.30;;;;;;;33.66;37.40;98775.63;5112919;28;20125;-66
2022/06/26 11:05:01;;;;;;;2.15;1.70;;;;;;;34.88;34.89;98769.59;5084299;28;20035;-67
2022/06/26 11:07:48;;;;;;;2.85;1.60;;;;;;;35.41;33.55;98775.19;5112065;28;20547;-66
2022/06/26 11:10:33;;;;;;;1.60;1.27;;;;;;;36.04;33.32;98759.72;5097590;28;20031;-67
2022/06/26 11:13:18;;;;;;;1.95;1.38;;;;;;;34.47;35.30;98769.41;5112063;28;20036;-66
2022/06/26 11:16:04;;;;;;;3.60;1.40;;;;;;;34.73;35.13;98770.38;5096935;28;20039;-67
2022/06/26 11:18:49;;;;;;;1.80;1.50;;;;;;;34.64;35.46;98770.03;5100595;28;20042;-68
2022/06/26 11:21:34;;;;;;;1.38;1.23;;;;;;;34.82;35.47;98761.69;5096713;28;20047;-68
2022/06/26 11:24:18;;;;;;;1.55;1.33;;;;;;;33.06;37.20;98771.75;5112611;28;20042;-67
2022/06/26 11:27:03;;;;;;;3.30;1.60;;;;;;;34.14;35.40;98758.59;5098351;28;20811;-67
2022/06/26 11:29:48;;;;;;;1.67;1.35;;;;;;;34.13;35.98;98756.94;5082119;28;20055;-66
2022/06/26 11:32:33;;;;;;;1.42;1.33;;;;;;;33.39;37.29;98761.00;5087646;28;20110;-67
2022/06/26 11:35:24;;;;;;;1.63;1.45;;;;;;;33.82;36.54;98767.63;5098590;28;20553;-66
2022/06/26 11:38:14;;;;;;;1.52;1.20;;;;;;;33.52;37.19;98753.50;5109050;28;20051;-67
2022/06/26 11:41:07;;;;;;;2.13;1.10;;;;;;;32.86;38.02;98752.53;5105650;28;20424;-67
2022/06/26 11:43:55;;;;;;;2.08;1.15;;;;;;;34.29;35.44;98756.00;5096845;28;20041;-67
2022/06/26 11:46:40;;;;;;;2.15;0.90;;;;;;;32.37;42.08;98748.63;5111587;28;20063;-67
2022/06/26 11:49:25;;;;;;;3.05;1.33;;;;;;;31.87;42.56;98760.09;5090559;28;20051;-67
2022/06/26 11:52:11;;;;;;;1.58;1.38;;;;;;;32.76;41.72;98756.75;5109714;28;20027;-66
2022/06/26 11:55:01;;;;;;;2.28;1.10;;;;;;;33.74;37.93;98752.59;5097296;28;20043;-65
2022/06/26 11:57:46;;;;;;;6.38;1.75;;;;;;;32.11;41.24;98745.56;5067791;28;20042;-67
2022/06/26 12:00:31;;;;;;;1.55;1.17;;;;;;;32.94;39.02;98755.63;5111738;28;20517;-65
2022/06/26 12:03:16;;;;;;;1.80;1.55;;;;;;;32.48;38.01;98744.19;5097811;28;20039;-66
2022/06/26 12:06:01;;;;;;;1.75;1.50;;;;;;;32.51;39.83;98749.91;5111488;28;20043;-66
2022/06/26 12:08:46;;;;;;;3.25;2.05;;;;;;;33.62;37.46;98750.06;5096658;28;20085;-66
2022/06/26 12:11:41;;;;;;;2.45;1.40;;;;;;;34.08;35.46;98746.06;5095575;28;20555;-67
2022/06/26 12:14:27;;;;;;;3.72;1.83;;;;;;;34.56;35.21;98740.66;5111927;28;20039;-66
2022/06/26 12:17:12;;;;;;;1.88;1.52;;;;;;;34.23;35.35;98743.47;5112485;28;20032;-67
2022/06/26 12:20:07;;;;;;;3.78;1.55;;;;;;;34.22;35.88;98736.41;5096000;28;20123;-67
2022/06/26 12:22:56;;;;;;;4.15;1.55;;;;;;;34.97;35.69;98741.91;5111536;28;20184;-66
2022/06/26 12:25:44;;;;;;;2.28;1.70;;;;;;;34.41;35.07;98741.38;5069172;28;20054;-68
2022/06/26 12:28:28;;;;;;;2.03;1.83;;;;;;;32.97;36.08;98751.56;5096662;28;20044;-68
2022/06/26 12:31:16;;;;;;;2.08;1.65;;;;;;;33.02;36.14;98751.63;5108339;28;20043;-67
2022/06/26 12:34:04;;;;;;;2.05;1.58;;;;;;;34.24;35.16;98742.38;5063638;28;20082;-66
2022/06/26 12:36:50;;;;;;;2.60;1.40;;;;;;;35.07;32.93;98751.97;5098683;28;20039;-66
2022/06/26 12:39:34;;;;;;;3.45;1.98;;;;;;;34.33;32.27;98750.03;5115263;28;20032;-67
2022/06/26 12:42:19;;;;;;;2.58;1.40;;;;;;;32.65;33.85;98744.16;5102518;28;20039;-68
2022/06/26 12:45:04;;;;;;;2.28;1.50;;;;;;;32.77;34.53;98746.75;5098471;28;20035;-67
2022/06/26 12:47:50;;;;;;;2.63;1.60;;;;;;;32.06;33.72;98751.72;5090301;28;20038;-68
2022/06/26 12:50:35;;;;;;;1.98;1.50;;;;;;;31.62;34.41;98745.06;5099379;28;20129;-68
2022/06/26 12:53:20;;;;;;;1.58;1.20;;;;;;;33.53;32.99;98742.38;5099789;28;20479;-67
2022/06/26 12:56:06;;;;;;;1.80;1.45;;;;;;;34.59;31.92;98742.00;5114753;28;20040;-68
2022/06/26 12:58:50;;;;;;;2.00;1.40;;;;;;;34.81;31.20;98746.47;5070890;28;20052;-66
2022/06/26 13:01:35;;;;;;;3.08;1.50;;;;;;;33.99;31.48;98740.31;5086777;28;20066;-68
2022/06/26 13:04:21;;;;;;;3.95;1.40;;;;;;;34.45;30.92;98745.22;5086482;28;20043;-68
2022/06/26 13:07:06;;;;;;;2.08;1.55;;;;;;;35.57;29.54;98749.63;5085940;28;20367;-67
2022/06/26 13:09:50;;;;;;;2.63;1.42;;;;;;;35.60;29.97;98743.63;5114768;28;20066;-68
2022/06/26 13:12:35;;;;;;;2.15;1.58;;;;;;;34.94;32.95;98737.00;5072233;28;20406;-67
2022/06/26 13:15:20;;;;;;;3.05;1.60;;;;;;;35.73;29.93;98736.03;5089497;28;20092;-67
2022/06/26 13:18:06;;;;;;;1.58;1.20;;;;;;;35.68;29.16;98741.47;5116170;28;20040;-68